createdAt,value
2023-04-22T00:01:12.976Z,9.01
2023-04-22T00:03:42.508Z,9.56
2023-04-22T00:06:12.456Z,9.64
2023-04-22T00:08:40.601Z,9.73
2023-04-22T00:11:08.723Z,9.39
2023-04-22T00:13:37.268Z,9.59
2023-04-22T00:16:05.915Z,9.77
2023-04-22T00:18:35.871Z,9.67
2023-04-22T00:21:04.150Z,9.73
2023-04-22T00:23:33.738Z,9.69
2023-04-22T00:26:02.010Z,9.57
2023-04-22T00:28:30.459Z,9.04
2023-04-22T00:30:59.175Z,9.32
2023-04-22T00:33:27.367Z,9.03
2023-04-22T00:35:55.842Z,9.54
2023-04-22T00:38:24.365Z,9.61
2023-04-22T00:40:53.975Z,9.32
2023-04-22T00:43:22.116Z,9.45
2023-04-22T00:45:50.803Z,9.43
2023-04-22T00:48:19.096Z,9.42
2023-04-22T00:50:47.302Z,9.26
2023-04-22T00:53:15.460Z,9.33
2023-04-22T00:55:43.774Z,9.38
2023-04-22T00:58:13.698Z,9.28
2023-04-22T01:00:41.965Z,9.22
2023-04-22T01:03:11.278Z,9.09
2023-04-22T01:05:40.462Z,9.06
2023-04-22T01:08:08.645Z,9.02
2023-04-22T01:10:37.295Z,8.90
2023-04-22T01:13:05.427Z,8.97
2023-04-22T01:15:35.232Z,9.04
2023-04-22T01:18:03.817Z,8.81
2023-04-22T01:20:32.270Z,8.74
2023-04-22T01:23:05.378Z,8.71
2023-04-22T01:25:35.139Z,8.70
2023-04-22T01:28:04.338Z,8.55
2023-04-22T01:30:33.265Z,8.61
2023-04-22T01:33:01.622Z,8.66
2023-04-22T01:35:30.656Z,8.59
2023-04-22T01:37:58.898Z,8.64
2023-04-22T01:40:28.752Z,8.62
2023-04-22T01:42:58.709Z,8.33
2023-04-22T01:45:27.192Z,8.63
2023-04-22T01:47:55.788Z,8.63
2023-04-22T01:50:24.593Z,8.06
2023-04-22T01:52:52.738Z,8.46
2023-04-22T01:55:20.981Z,8.77
2023-04-22T01:57:49.103Z,8.53
2023-04-22T02:00:19.368Z,8.68
2023-04-22T02:02:47.688Z,8.58
2023-04-22T02:05:16.147Z,8.52
2023-04-22T02:07:44.331Z,8.43
2023-04-22T02:10:13.255Z,8.48
2023-04-22T02:12:41.440Z,8.51
2023-04-22T02:15:10.917Z,8.40
2023-04-22T02:17:43.668Z,8.31
2023-04-22T02:20:13.174Z,8.26
2023-04-22T02:22:43.636Z,8.17
2023-04-22T02:25:14.252Z,7.94
2023-04-22T02:27:42.504Z,8.22
2023-04-22T02:30:11.354Z,8.07
2023-04-22T02:32:40.939Z,8.00
2023-04-22T02:35:09.845Z,7.68
2023-04-22T02:37:38.037Z,8.06
2023-04-22T02:40:08.076Z,8.08
2023-04-22T02:42:36.905Z,7.72
2023-04-22T02:45:05.629Z,7.70
2023-04-22T02:47:33.860Z,7.93
2023-04-22T02:50:03.898Z,8.02
2023-04-22T02:52:32.020Z,7.89
2023-04-22T02:55:00.174Z,8.05
2023-04-22T02:57:28.394Z,8.04
2023-04-22T02:59:57.187Z,7.97
2023-04-22T03:02:25.568Z,7.91
2023-04-22T03:04:54.479Z,7.96
2023-04-22T03:07:24.071Z,7.86
2023-04-22T03:09:52.254Z,7.86
2023-04-22T03:12:20.432Z,7.63
2023-04-22T03:14:48.590Z,7.74
2023-04-22T03:17:16.804Z,7.78
2023-04-22T03:19:44.991Z,7.82
2023-04-22T03:22:13.478Z,7.67
2023-04-22T03:24:43.044Z,7.74
2023-04-22T03:27:11.329Z,7.79
2023-04-22T03:29:39.667Z,7.60
2023-04-22T03:32:08.098Z,7.62
2023-04-22T03:34:37.214Z,7.70
2023-04-22T03:37:05.598Z,7.66
2023-04-22T03:39:33.785Z,7.66
2023-04-22T03:42:03.389Z,7.66
2023-04-22T03:44:31.522Z,7.61
2023-04-22T03:46:59.688Z,7.45
2023-04-22T03:49:27.999Z,7.76
2023-04-22T03:51:56.191Z,6.68
2023-04-22T03:54:24.523Z,7.76
2023-04-22T03:56:52.731Z,7.79
2023-04-22T03:59:22.356Z,7.64
2023-04-22T04:01:53.054Z,7.64
2023-04-22T04:04:23.276Z,7.50
2023-04-22T04:06:51.757Z,7.41
2023-04-22T04:09:19.927Z,7.52
2023-04-22T04:11:48.084Z,7.53
2023-04-22T04:14:16.227Z,7.45
2023-04-22T04:16:45.962Z,7.41
2023-04-22T04:19:14.039Z,7.72
2023-04-22T04:21:42.453Z,7.63
2023-04-22T04:24:10.765Z,7.88
2023-04-22T04:26:38.881Z,8.05
2023-04-22T04:29:07.051Z,7.82
2023-04-22T04:31:35.525Z,8.09
2023-04-22T04:34:05.894Z,7.84
2023-04-22T04:36:34.749Z,7.86
2023-04-22T04:39:02.912Z,8.05
2023-04-22T04:41:31.875Z,8.01
2023-04-22T04:44:00.735Z,8.05
2023-04-22T04:46:29.787Z,7.50
2023-04-22T04:48:58.846Z,8.22
2023-04-22T04:51:28.361Z,8.18
2023-04-22T04:53:56.506Z,8.29
2023-04-22T04:56:24.744Z,8.50
2023-04-22T04:58:53.013Z,8.83
2023-04-22T05:01:21.241Z,8.94
2023-04-22T05:03:49.736Z,9.11
2023-04-22T05:06:17.952Z,9.10
2023-04-22T05:08:47.584Z,9.04
2023-04-22T05:11:15.798Z,8.38
2023-04-22T05:13:43.951Z,9.43
2023-04-22T05:16:12.277Z,9.63
2023-04-22T05:18:41.526Z,9.72
2023-04-22T05:21:09.690Z,9.95
2023-04-22T05:23:37.864Z,9.98
2023-04-22T05:26:07.515Z,10.26
2023-04-22T05:28:35.697Z,10.44
2023-04-22T05:31:03.925Z,10.50
2023-04-22T05:33:32.105Z,10.69
2023-04-22T05:36:00.464Z,10.73
2023-04-22T05:38:29.194Z,10.70
2023-04-22T05:40:57.425Z,10.73
2023-04-22T05:43:27.319Z,10.78
2023-04-22T05:45:56.045Z,10.74
2023-04-22T05:48:24.433Z,10.92
2023-04-22T05:50:52.610Z,11.01
2023-04-22T05:53:20.878Z,11.29
2023-04-22T05:55:49.326Z,11.43
2023-04-22T05:58:17.501Z,10.95
2023-04-22T06:00:47.211Z,11.46
2023-04-22T06:03:15.614Z,11.69
2023-04-22T06:05:44.481Z,11.82
2023-04-22T06:08:12.669Z,11.98
2023-04-22T06:10:40.851Z,12.15
2023-04-22T06:13:09.576Z,12.34
2023-04-22T06:15:37.868Z,12.46
2023-04-22T06:18:07.678Z,12.48
2023-04-22T06:20:36.033Z,12.58
2023-04-22T06:23:05.457Z,12.62
2023-04-22T06:25:34.069Z,12.60
2023-04-22T06:28:02.388Z,12.57
2023-04-22T06:30:30.614Z,12.80
2023-04-22T06:32:59.028Z,12.93
2023-04-22T06:35:28.583Z,12.96
2023-04-22T06:37:56.964Z,13.01
2023-04-22T06:40:25.200Z,13.13
2023-04-22T06:42:53.379Z,13.31
2023-04-22T06:45:21.847Z,13.44
2023-04-22T06:47:50.185Z,13.52
2023-04-22T06:50:18.465Z,13.67
2023-04-22T06:52:48.174Z,13.88
2023-04-22T06:55:16.555Z,14.03
2023-04-22T06:57:44.695Z,14.10
2023-04-22T07:00:14.209Z,14.12
2023-04-22T07:02:42.512Z,14.28
2023-04-22T07:05:11.072Z,14.49
2023-04-22T07:07:39.359Z,14.41
2023-04-22T07:10:10.866Z,14.63
2023-04-22T07:12:38.945Z,14.59
2023-04-22T07:15:08.315Z,14.71
2023-04-22T07:17:36.618Z,14.72
2023-04-22T07:20:05.055Z,14.66
2023-04-22T07:22:33.285Z,14.53
2023-04-22T07:25:01.434Z,14.57
2023-04-22T07:27:31.098Z,14.69
2023-04-22T07:29:59.222Z,14.95
2023-04-22T07:32:27.496Z,14.74
2023-04-22T07:34:55.631Z,14.71
2023-04-22T07:37:23.815Z,14.92
2023-04-22T07:39:52.003Z,14.90
2023-04-22T07:42:20.684Z,15.30
2023-04-22T07:44:50.232Z,15.32
2023-04-22T07:47:18.408Z,15.39
2023-04-22T07:49:46.671Z,15.56
2023-04-22T07:52:14.890Z,15.74
2023-04-22T07:54:43.049Z,15.81
2023-04-22T07:57:11.273Z,15.84
2023-04-22T07:59:40.242Z,15.79
2023-04-22T08:02:10.129Z,15.66
2023-04-22T08:04:38.377Z,15.81
2023-04-22T08:07:26.403Z,15.82
2023-04-22T08:09:56.655Z,16.04
2023-04-22T08:12:25.034Z,16.23
2023-04-22T08:14:53.189Z,16.38
2023-04-22T08:17:23.053Z,16.40
2023-04-22T08:19:51.597Z,16.39
2023-04-22T08:22:19.750Z,16.11
2023-04-22T08:24:48.000Z,16.15
2023-04-22T08:27:16.150Z,16.02
2023-04-22T08:29:44.539Z,16.24
2023-04-22T08:32:12.868Z,16.43
2023-04-22T08:34:42.500Z,16.43
2023-04-22T08:37:12.060Z,16.33
2023-04-22T08:39:40.576Z,16.42
2023-04-22T08:42:09.475Z,16.20
2023-04-22T08:44:39.155Z,16.24
2023-04-22T08:47:08.206Z,16.33
2023-04-22T08:49:37.558Z,16.39
2023-04-22T08:52:09.592Z,16.50
2023-04-22T08:54:37.955Z,16.42
2023-04-22T08:57:07.463Z,16.33
2023-04-22T08:59:36.914Z,16.63
2023-04-22T09:02:06.959Z,16.97
2023-04-22T09:04:35.456Z,17.19
2023-04-22T09:07:04.438Z,17.08
2023-04-22T09:09:34.548Z,17.13
2023-04-22T09:12:03.442Z,17.16
2023-04-22T09:14:31.710Z,17.48
2023-04-22T09:17:00.156Z,17.56
2023-04-22T09:19:28.505Z,17.55
2023-04-22T09:21:59.465Z,17.52
2023-04-22T09:24:27.659Z,17.37
2023-04-22T09:26:58.061Z,17.53
2023-04-22T09:29:32.083Z,17.68
2023-04-22T09:32:00.351Z,17.84
2023-04-22T09:34:29.048Z,17.92
2023-04-22T09:36:57.228Z,17.97
2023-04-22T09:39:25.409Z,17.83
2023-04-22T09:41:58.303Z,17.78
2023-04-22T09:44:41.290Z,17.91
2023-04-22T09:47:10.715Z,18.02
2023-04-22T09:49:39.744Z,18.27
2023-04-22T09:52:08.476Z,18.04
2023-04-22T09:54:38.858Z,18.00
2023-04-22T09:57:15.303Z,18.15
2023-04-22T09:59:45.011Z,18.22
2023-04-22T10:02:13.308Z,18.14
2023-04-22T10:04:42.848Z,17.95
2023-04-22T10:07:10.989Z,18.23
2023-04-22T10:09:39.848Z,18.34
2023-04-22T10:12:08.495Z,18.30
2023-04-22T10:14:36.807Z,18.03
2023-04-22T10:17:07.767Z,18.31
2023-04-22T10:19:36.832Z,18.46
2023-04-22T10:22:06.065Z,18.53
2023-04-22T10:24:38.394Z,18.11
2023-04-22T10:27:08.629Z,18.82
2023-04-22T10:29:39.356Z,18.93
2023-04-22T10:32:27.610Z,18.92
2023-04-22T10:35:13.916Z,19.13
2023-04-22T10:37:49.074Z,19.17
2023-04-22T10:40:19.026Z,19.04
2023-04-22T10:42:51.154Z,19.10
2023-04-22T10:45:20.289Z,19.23
2023-04-22T10:47:50.025Z,19.41
2023-04-22T10:50:24.045Z,19.55
2023-04-22T10:52:53.942Z,19.57
2023-04-22T10:55:22.627Z,19.64
2023-04-22T10:57:52.650Z,19.74
2023-04-22T11:00:45.725Z,19.73
2023-04-22T11:03:28.641Z,19.87
2023-04-22T11:06:16.274Z,20.10
2023-04-22T11:08:47.339Z,19.91
2023-04-22T11:11:15.860Z,19.87
2023-04-22T11:13:44.296Z,19.97
2023-04-22T11:16:12.839Z,19.95
2023-04-22T11:18:42.736Z,19.99
2023-04-22T11:21:11.296Z,20.12
2023-04-22T11:23:39.478Z,20.34
2023-04-22T11:26:08.206Z,20.48
2023-04-22T11:28:36.547Z,20.32
2023-04-22T11:31:07.050Z,20.45
2023-04-22T11:33:35.973Z,20.50
2023-04-22T11:36:06.046Z,20.58
2023-04-22T11:38:34.342Z,20.65
2023-04-22T11:41:04.874Z,20.80
2023-04-22T11:43:33.025Z,20.90
2023-04-22T11:46:01.370Z,21.14
2023-04-22T11:48:29.560Z,20.83
2023-04-22T11:51:13.048Z,20.64
2023-04-22T11:53:50.802Z,20.40
2023-04-22T11:56:18.996Z,20.79
2023-04-22T11:58:48.669Z,20.81
2023-04-22T12:01:16.792Z,20.82
2023-04-22T12:03:45.003Z,20.88
2023-04-22T12:06:14.768Z,20.85
2023-04-22T12:08:44.972Z,21.13
2023-04-22T12:11:13.643Z,21.39
2023-04-22T12:16:15.836Z,21.84
2023-04-22T12:18:50.895Z,22.08
2023-04-22T12:21:23.653Z,22.02
2023-04-22T12:23:53.752Z,21.93
2023-04-22T12:26:26.634Z,21.41
2023-04-22T12:28:56.148Z,21.58
2023-04-22T12:31:24.272Z,21.51
2023-04-22T12:33:52.742Z,21.27
2023-04-22T12:36:22.561Z,21.41
2023-04-22T12:38:51.390Z,21.58
2023-04-22T12:41:19.616Z,22.01
2023-04-22T12:43:48.043Z,21.92
2023-04-22T12:46:16.397Z,22.20
2023-04-22T12:48:44.653Z,22.21
2023-04-22T12:51:12.851Z,22.53
2023-04-22T12:53:42.444Z,22.67
2023-04-22T12:56:10.880Z,22.87
2023-04-22T12:58:39.002Z,22.84
2023-04-22T13:01:07.183Z,23.01
2023-04-22T13:03:35.457Z,23.05
2023-04-22T13:06:03.748Z,23.31
2023-04-22T13:08:32.041Z,23.59
2023-04-22T13:11:01.626Z,23.60
2023-04-22T13:13:29.740Z,23.43
2023-04-22T13:15:57.936Z,23.43
2023-04-22T13:18:26.052Z,23.57
2023-04-22T13:20:55.246Z,23.86
2023-04-22T13:23:23.538Z,23.80
2023-04-22T13:25:52.043Z,24.02
2023-04-22T13:28:21.797Z,24.41
2023-04-22T13:30:50.002Z,24.51
2023-04-22T13:33:18.124Z,24.65
2023-04-22T13:35:46.750Z,24.75
2023-04-22T13:38:15.068Z,24.77
2023-04-22T13:40:43.256Z,24.46
2023-04-22T13:43:11.883Z,24.17
2023-04-22T13:45:42.494Z,24.32
2023-04-22T13:48:10.768Z,24.52
2023-04-22T13:50:42.687Z,24.80
2023-04-22T13:53:12.005Z,24.26
2023-04-22T13:55:40.881Z,25.18
2023-04-22T13:58:09.089Z,24.95
2023-04-22T14:00:37.403Z,25.05
2023-04-22T14:03:07.197Z,24.78
2023-04-22T14:05:35.862Z,24.89
2023-04-22T14:08:04.141Z,24.55
2023-04-22T14:10:32.296Z,24.53
2023-04-22T14:13:00.638Z,24.32
2023-04-22T14:15:28.920Z,24.09
2023-04-22T14:17:57.246Z,24.39
2023-04-22T14:20:27.127Z,24.97
2023-04-22T14:22:55.345Z,24.99
2023-04-22T14:25:23.788Z,24.88
2023-04-22T14:27:51.954Z,24.67
2023-04-22T14:30:21.942Z,24.67
2023-04-22T14:32:50.854Z,25.28
2023-04-22T14:35:19.670Z,26.02
2023-04-22T14:37:49.423Z,26.55
2023-04-22T14:40:19.119Z,26.80
2023-04-22T14:42:47.682Z,26.77
2023-04-22T14:45:16.165Z,26.42
2023-04-22T14:47:44.335Z,27.29
2023-04-22T14:50:12.771Z,27.37
2023-04-22T14:52:41.137Z,26.51
2023-04-22T14:55:21.793Z,26.34
2023-04-22T14:57:51.561Z,26.12
2023-04-22T15:00:20.170Z,26.74
2023-04-22T15:02:48.679Z,27.15
2023-04-22T15:05:17.010Z,27.17
2023-04-22T15:07:45.268Z,27.35
2023-04-22T15:10:16.903Z,27.88
2023-04-22T15:12:45.212Z,28.31
2023-04-22T15:15:16.099Z,28.52
2023-04-22T15:17:44.955Z,29.39
2023-04-22T15:20:13.935Z,29.23
2023-04-22T15:22:42.231Z,29.28
2023-04-22T15:25:11.103Z,29.99
2023-04-22T15:27:40.742Z,31.69
2023-04-22T15:30:11.128Z,32.87
2023-04-22T15:32:40.251Z,34.17
2023-04-22T15:35:09.594Z,33.81
2023-04-22T15:37:37.896Z,33.57
2023-04-22T15:40:07.774Z,31.45
2023-04-22T15:42:36.145Z,30.22
2023-04-22T15:45:06.657Z,29.74
2023-04-22T15:47:36.245Z,30.16
2023-04-22T15:50:09.054Z,30.75
2023-04-22T15:52:38.983Z,30.74
2023-04-22T15:55:08.420Z,30.55
2023-04-22T15:57:36.998Z,28.66
2023-04-22T16:00:12.686Z,30.08
2023-04-22T16:02:42.824Z,29.81
2023-04-22T16:05:11.877Z,29.46
2023-04-22T16:07:40.434Z,30.64
2023-04-22T16:10:10.432Z,31.79
2023-04-22T16:12:38.580Z,31.63
2023-04-22T16:15:09.983Z,31.92
2023-04-22T16:17:38.696Z,31.48
2023-04-22T16:20:08.646Z,30.65
2023-04-22T16:25:06.476Z,29.12
2023-04-22T16:27:34.733Z,27.71
2023-04-22T16:30:03.033Z,28.13
2023-04-22T16:32:32.800Z,27.42
2023-04-22T16:35:01.542Z,26.43
2023-04-22T16:37:29.802Z,25.23
2023-04-22T16:39:58.184Z,23.37
2023-04-22T16:42:26.532Z,23.24
2023-04-22T16:44:54.893Z,22.93
2023-04-22T16:47:23.208Z,22.51
2023-04-22T16:49:52.762Z,21.87
2023-04-22T16:52:21.218Z,21.99
2023-04-22T16:54:51.948Z,21.73
2023-04-22T16:57:20.229Z,21.34
2023-04-22T16:59:48.525Z,21.23
2023-04-22T17:02:17.052Z,20.91
2023-04-22T17:04:45.390Z,20.04
2023-04-22T17:07:15.026Z,20.42
2023-04-22T17:09:43.584Z,20.25
2023-04-22T17:12:12.102Z,20.20
2023-04-22T17:14:40.358Z,20.06
2023-04-22T17:17:08.627Z,19.61
2023-04-22T17:19:36.824Z,19.64
2023-04-22T17:22:05.079Z,19.81
2023-04-22T17:24:34.841Z,19.63
2023-04-22T17:27:03.111Z,19.17
2023-04-22T17:29:31.417Z,18.98
2023-04-22T17:31:59.656Z,19.41
2023-04-22T17:34:28.688Z,19.42
2023-04-22T17:36:56.954Z,19.31
2023-04-22T17:39:25.283Z,19.21
2023-04-22T17:41:54.979Z,19.07
2023-04-22T17:44:23.281Z,19.00
2023-04-22T17:46:51.567Z,18.76
2023-04-22T17:49:19.918Z,18.34
2023-04-22T17:51:48.252Z,18.47
2023-04-22T17:54:16.672Z,18.36
2023-04-22T17:56:45.189Z,18.11
2023-04-22T17:59:16.254Z,18.11
2023-04-22T18:01:44.589Z,17.91
2023-04-22T18:04:13.285Z,17.87
2023-04-22T18:06:41.976Z,17.64
2023-04-22T18:09:10.860Z,17.70
2023-04-22T18:11:39.482Z,16.67
2023-04-22T18:14:08.042Z,17.34
2023-04-22T18:16:37.826Z,17.39
2023-04-22T18:19:06.942Z,17.23
2023-04-22T18:21:36.106Z,17.09
2023-04-22T18:24:05.680Z,16.97
2023-04-22T18:26:33.981Z,17.02
2023-04-22T18:29:04.522Z,16.99
2023-04-22T18:31:33.152Z,16.92
2023-04-22T18:34:02.870Z,16.73
2023-04-22T18:36:31.170Z,16.43
2023-04-22T18:38:59.359Z,16.58
2023-04-22T18:41:27.379Z,16.65
2023-04-22T18:43:55.638Z,16.38
2023-04-22T18:46:23.889Z,16.52
2023-04-22T18:48:52.191Z,16.44
2023-04-22T18:51:21.972Z,16.47
2023-04-22T18:53:51.294Z,16.40
2023-04-22T18:56:19.453Z,16.39
2023-04-22T18:58:47.863Z,16.33
2023-04-22T19:01:16.595Z,16.28
2023-04-22T19:03:46.411Z,16.10
2023-04-22T19:06:15.832Z,16.21
2023-04-22T19:08:46.666Z,16.15
2023-04-22T19:11:16.571Z,16.15
2023-04-22T19:13:45.286Z,16.14
2023-04-22T19:16:13.594Z,15.78
2023-04-22T19:18:51.288Z,16.01
2023-04-22T19:21:20.412Z,15.75
2023-04-22T19:23:53.207Z,15.28
2023-04-22T19:26:22.110Z,15.86
2023-04-22T19:28:50.782Z,15.83
2023-04-22T19:31:20.310Z,15.84
2023-04-22T19:33:48.836Z,15.71
2023-04-22T19:36:16.892Z,15.73
2023-04-22T19:38:44.857Z,15.74
2023-04-22T19:41:14.532Z,15.69
2023-04-22T19:43:43.016Z,14.80
2023-04-22T19:46:11.863Z,15.32
2023-04-22T19:48:40.990Z,14.90
2023-04-22T19:51:11.194Z,15.42
2023-04-22T19:53:41.263Z,15.43
2023-04-22T19:56:11.041Z,15.18
2023-04-22T19:58:41.156Z,15.22
2023-04-22T20:01:11.288Z,15.21
2023-04-22T20:03:42.787Z,15.19
2023-04-22T20:06:13.219Z,15.23
2023-04-22T20:08:42.455Z,14.82
2023-04-22T20:11:11.707Z,14.89
2023-04-22T20:13:42.555Z,14.71
2023-04-22T20:16:11.925Z,14.66
2023-04-22T20:19:15.185Z,15.08
2023-04-22T20:21:45.961Z,15.06
2023-04-22T20:24:19.633Z,15.07
2023-04-22T20:26:49.655Z,14.92
2023-04-22T20:29:19.668Z,14.61
2023-04-22T20:31:48.286Z,14.81
2023-04-22T20:34:16.686Z,14.68
2023-04-22T20:36:45.512Z,12.49
2023-04-22T20:39:14.553Z,14.63
2023-04-22T20:41:44.030Z,14.63
2023-04-22T20:44:12.306Z,14.82
2023-04-22T20:46:41.882Z,14.65
2023-04-22T20:49:10.089Z,14.53
2023-04-22T20:51:38.471Z,14.54
2023-04-22T20:54:14.656Z,14.00
2023-04-22T20:56:53.913Z,14.47
2023-04-22T20:59:22.111Z,14.42
2023-04-22T21:01:53.572Z,14.42
2023-04-22T21:04:23.648Z,14.38
2023-04-22T21:06:52.846Z,14.18
2023-04-22T21:09:22.065Z,14.24
2023-04-22T21:11:51.322Z,14.27
2023-04-22T21:14:21.165Z,14.21
2023-04-22T21:16:59.379Z,14.13
2023-04-22T21:19:28.949Z,13.28
2023-04-22T21:22:00.835Z,13.82
2023-04-22T21:24:31.304Z,14.02
2023-04-22T21:27:01.510Z,14.04
2023-04-22T21:29:30.603Z,13.18
2023-04-22T21:32:08.828Z,13.67
2023-04-22T21:34:38.026Z,13.98
2023-04-22T21:37:07.260Z,14.09
2023-04-22T21:39:35.998Z,13.91
2023-04-22T21:42:08.370Z,13.78
2023-04-22T21:44:38.337Z,13.76
2023-04-22T21:47:08.238Z,13.67
2023-04-22T21:49:36.470Z,13.76
2023-04-22T21:52:04.985Z,13.77
2023-04-22T21:54:33.301Z,13.74
2023-04-22T21:57:01.672Z,13.72
2023-04-22T21:59:29.875Z,13.71
2023-04-22T22:01:58.233Z,13.67
2023-04-22T22:04:28.198Z,13.67
2023-04-22T22:06:56.767Z,13.65
2023-04-22T22:09:25.028Z,13.48
2023-04-22T22:11:53.232Z,13.49
2023-04-22T22:14:21.531Z,13.46
2023-04-22T22:16:53.749Z,13.42
2023-04-22T22:19:22.565Z,13.45
2023-04-22T22:21:52.788Z,13.41
2023-04-22T22:24:21.223Z,13.42
2023-04-22T22:26:50.026Z,13.31
2023-04-22T22:29:19.421Z,13.34
2023-04-22T22:31:48.346Z,13.17
2023-04-22T22:34:16.799Z,13.21
2023-04-22T22:36:45.205Z,13.28
2023-04-22T22:39:16.402Z,13.24
2023-04-22T22:41:44.646Z,13.21
2023-04-22T22:44:12.822Z,13.13
2023-04-22T22:46:41.550Z,13.05
2023-04-22T22:49:10.785Z,13.06
2023-04-22T22:51:38.954Z,12.98
2023-04-22T22:54:07.374Z,12.87
2023-04-22T22:56:37.110Z,12.88
2023-04-22T22:59:05.348Z,12.86
2023-04-22T23:01:33.612Z,12.84
2023-04-22T23:04:02.154Z,12.75
2023-04-22T23:06:32.001Z,12.67
2023-04-22T23:09:00.203Z,12.73
2023-04-22T23:11:28.323Z,12.73
2023-04-22T23:13:58.059Z,12.66
2023-04-22T23:16:27.140Z,12.60
2023-04-22T23:18:56.993Z,12.42
2023-04-22T23:21:25.458Z,12.50
2023-04-22T23:23:55.209Z,12.50
2023-04-22T23:26:23.899Z,12.48
2023-04-22T23:28:52.844Z,12.57
2023-04-22T23:31:24.242Z,12.56
2023-04-22T23:33:56.704Z,12.37
2023-04-22T23:36:27.832Z,12.35
2023-04-22T23:38:57.947Z,12.22
2023-04-22T23:41:26.380Z,12.19
2023-04-22T23:43:54.546Z,12.09
2023-04-22T23:46:24.305Z,12.21
2023-04-22T23:48:52.600Z,12.23
2023-04-22T23:51:20.758Z,12.21
2023-04-22T23:53:48.984Z,12.10
2023-04-22T23:56:22.352Z,12.08
2023-04-22T23:58:51.189Z,12.09
